sensor_id;sensor_type;location;lat;lon;timestamp;temperature;humidity
10678;DHT22;5387;48.722;9.110;2023-02-11T00:00:12;-2.50;99.90
10678;DHT22;5387;48.722;9.110;2023-02-11T00:02:40;-2.50;99.90
10678;DHT22;5387;48.722;9.110;2023-02-11T00:05:07;-2.40;99.90
10678;DHT22;5387;48.722;9.110;2023-02-11T00:07:34;-2.50;99.90
10678;DHT22;5387;48.722;9.110;2023-02-11T00:10:02;-2.40;99.90
10678;DHT22;5387;48.722;9.110;2023-02-11T00:12:29;-2.50;99.90
10678;DHT22;5387;48.722;9.110;2023-02-11T00:14:57;-2.50;99.90
10678;DHT22;5387;48.722;9.110;2023-02-11T00:17:24;-2.50;99.90
10678;DHT22;5387;48.722;9.110;2023-02-11T00:19:51;-2.40;99.90
10678;DHT22;5387;48.722;9.110;2023-02-11T00:22:18;-2.40;99.90
10678;DHT22;5387;48.722;9.110;2023-02-11T00:24:45;-2.40;99.90
10678;DHT22;5387;48.722;9.110;2023-02-11T00:27:12;-2.40;99.90
10678;DHT22;5387;48.722;9.110;2023-02-11T00:29:39;-2.40;99.90
10678;DHT22;5387;48.722;9.110;2023-02-11T00:32:08;-2.40;99.90
10678;DHT22;5387;48.722;9.110;2023-02-11T00:34:35;-2.30;99.90
10678;DHT22;5387;48.722;9.110;2023-02-11T00:37:02;-2.20;99.90
10678;DHT22;5387;48.722;9.110;2023-02-11T00:39:30;-2.10;99.90
10678;DHT22;5387;48.722;9.110;2023-02-11T00:41:57;-2.10;99.90
10678;DHT22;5387;48.722;9.110;2023-02-11T00:44:24;-2.20;99.90
10678;DHT22;5387;48.722;9.110;2023-02-11T00:46:51;-2.20;99.90
10678;DHT22;5387;48.722;9.110;2023-02-11T00:49:19;-2.20;99.90
10678;DHT22;5387;48.722;9.110;2023-02-11T00:51:46;-2.30;99.90
10678;DHT22;5387;48.722;9.110;2023-02-11T00:54:12;-2.30;99.90
10678;DHT22;5387;48.722;9.110;2023-02-11T00:56:39;-2.30;99.90
10678;DHT22;5387;48.722;9.110;2023-02-11T00:59:06;-2.30;99.90
10678;DHT22;5387;48.722;9.110;2023-02-11T01:01:33;-2.40;99.90
10678;DHT22;5387;48.722;9.110;2023-02-11T01:04:00;-2.40;99.90
10678;DHT22;5387;48.722;9.110;2023-02-11T01:06:28;-2.30;99.90
10678;DHT22;5387;48.722;9.110;2023-02-11T01:08:55;-2.30;99.90
10678;DHT22;5387;48.722;9.110;2023-02-11T01:11:22;-2.40;99.90
10678;DHT22;5387;48.722;9.110;2023-02-11T01:13:49;-2.40;99.90
10678;DHT22;5387;48.722;9.110;2023-02-11T01:16:16;-2.50;99.90
10678;DHT22;5387;48.722;9.110;2023-02-11T01:18:43;-2.40;99.90
10678;DHT22;5387;48.722;9.110;2023-02-11T01:21:10;-2.50;99.90
10678;DHT22;5387;48.722;9.110;2023-02-11T01:23:38;-2.50;99.90
10678;DHT22;5387;48.722;9.110;2023-02-11T01:26:05;-2.40;99.90
10678;DHT22;5387;48.722;9.110;2023-02-11T01:28:32;-2.40;99.90
10678;DHT22;5387;48.722;9.110;2023-02-11T01:30:59;-2.50;99.90
10678;DHT22;5387;48.722;9.110;2023-02-11T01:33:26;-2.50;99.90
10678;DHT22;5387;48.722;9.110;2023-02-11T01:35:53;-2.70;99.90
10678;DHT22;5387;48.722;9.110;2023-02-11T01:38:22;-2.60;99.90
10678;DHT22;5387;48.722;9.110;2023-02-11T01:40:53;-2.50;99.90
10678;DHT22;5387;48.722;9.110;2023-02-11T01:43:20;-2.50;99.90
10678;DHT22;5387;48.722;9.110;2023-02-11T01:45:59;-2.60;99.90
10678;DHT22;5387;48.722;9.110;2023-02-11T01:48:29;-2.50;99.90
10678;DHT22;5387;48.722;9.110;2023-02-11T01:51:01;-2.50;99.90
10678;DHT22;5387;48.722;9.110;2023-02-11T01:53:29;-2.50;99.90
10678;DHT22;5387;48.722;9.110;2023-02-11T01:56:17;-2.50;99.90
10678;DHT22;5387;48.722;9.110;2023-02-11T01:59:06;-2.50;99.90
10678;DHT22;5387;48.722;9.110;2023-02-11T02:01:36;-2.60;99.90
10678;DHT22;5387;48.722;9.110;2023-02-11T02:04:05;-2.60;99.90
10678;DHT22;5387;48.722;9.110;2023-02-11T02:06:36;-2.60;99.90
10678;DHT22;5387;48.722;9.110;2023-02-11T02:09:08;-2.60;99.90
10678;DHT22;5387;48.722;9.110;2023-02-11T02:11:36;-2.70;99.90
10678;DHT22;5387;48.722;9.110;2023-02-11T02:14:03;-2.70;99.90
10678;DHT22;5387;48.722;9.110;2023-02-11T02:16:33;-2.80;99.90
10678;DHT22;5387;48.722;9.110;2023-02-11T02:19:11;-2.80;99.90
10678;DHT22;5387;48.722;9.110;2023-02-11T02:21:58;-2.70;99.90
10678;DHT22;5387;48.722;9.110;2023-02-11T02:24:47;-2.80;99.90
10678;DHT22;5387;48.722;9.110;2023-02-11T02:27:33;-2.90;99.90
10678;DHT22;5387;48.722;9.110;2023-02-11T02:30:21;-2.90;99.90
10678;DHT22;5387;48.722;9.110;2023-02-11T02:33:07;-2.80;99.90
10678;DHT22;5387;48.722;9.110;2023-02-11T02:35:42;-2.80;99.90
10678;DHT22;5387;48.722;9.110;2023-02-11T02:38:16;-2.70;99.90
10678;DHT22;5387;48.722;9.110;2023-02-11T02:40:48;-2.60;99.90
10678;DHT22;5387;48.722;9.110;2023-02-11T02:43:16;-2.70;99.90
10678;DHT22;5387;48.722;9.110;2023-02-11T02:45:44;-2.70;99.90
10678;DHT22;5387;48.722;9.110;2023-02-11T02:48:24;-2.60;99.90
10678;DHT22;5387;48.722;9.110;2023-02-11T02:51:01;-2.40;99.90
10678;DHT22;5387;48.722;9.110;2023-02-11T02:53:42;-2.70;99.90
10678;DHT22;5387;48.722;9.110;2023-02-11T02:56:12;-2.70;99.90
10678;DHT22;5387;48.722;9.110;2023-02-11T02:58:55;-2.70;99.90
10678;DHT22;5387;48.722;9.110;2023-02-11T03:01:34;-2.60;99.90
10678;DHT22;5387;48.722;9.110;2023-02-11T03:04:11;-2.60;99.90
10678;DHT22;5387;48.722;9.110;2023-02-11T03:06:47;-2.50;99.90
10678;DHT22;5387;48.722;9.110;2023-02-11T03:09:18;-2.50;99.90
10678;DHT22;5387;48.722;9.110;2023-02-11T03:11:47;-2.40;99.90
10678;DHT22;5387;48.722;9.110;2023-02-11T03:14:16;-2.30;99.90
10678;DHT22;5387;48.722;9.110;2023-02-11T03:16:45;-2.40;99.90
10678;DHT22;5387;48.722;9.110;2023-02-11T03:19:18;-2.40;99.90
10678;DHT22;5387;48.722;9.110;2023-02-11T03:21:48;-2.50;99.90
10678;DHT22;5387;48.722;9.110;2023-02-11T03:24:20;-2.40;99.90
10678;DHT22;5387;48.722;9.110;2023-02-11T03:26:50;-2.50;99.90
10678;DHT22;5387;48.722;9.110;2023-02-11T03:29:25;-2.50;99.90
10678;DHT22;5387;48.722;9.110;2023-02-11T03:32:00;-2.50;99.90
10678;DHT22;5387;48.722;9.110;2023-02-11T03:34:34;-2.40;99.90
10678;DHT22;5387;48.722;9.110;2023-02-11T03:37:05;-2.40;99.90
10678;DHT22;5387;48.722;9.110;2023-02-11T03:39:35;-2.30;99.90
10678;DHT22;5387;48.722;9.110;2023-02-11T03:42:05;-2.40;99.90
10678;DHT22;5387;48.722;9.110;2023-02-11T03:44:36;-2.50;99.90
10678;DHT22;5387;48.722;9.110;2023-02-11T03:47:06;-2.50;99.90
10678;DHT22;5387;48.722;9.110;2023-02-11T03:49:37;-2.60;99.90
10678;DHT22;5387;48.722;9.110;2023-02-11T03:52:05;-2.50;99.90
10678;DHT22;5387;48.722;9.110;2023-02-11T03:54:36;-2.50;99.90
10678;DHT22;5387;48.722;9.110;2023-02-11T03:57:04;-2.50;99.90
10678;DHT22;5387;48.722;9.110;2023-02-11T03:59:31;-2.40;99.90
10678;DHT22;5387;48.722;9.110;2023-02-11T04:01:58;-2.50;99.90
10678;DHT22;5387;48.722;9.110;2023-02-11T04:04:25;-2.40;99.90
10678;DHT22;5387;48.722;9.110;2023-02-11T04:06:53;-2.30;99.90
10678;DHT22;5387;48.722;9.110;2023-02-11T04:09:19;-2.30;99.90
10678;DHT22;5387;48.722;9.110;2023-02-11T04:11:46;-2.20;99.90
10678;DHT22;5387;48.722;9.110;2023-02-11T04:14:13;-2.10;99.90
10678;DHT22;5387;48.722;9.110;2023-02-11T04:16:40;-2.00;99.90
10678;DHT22;5387;48.722;9.110;2023-02-11T04:19:07;-1.90;99.90
10678;DHT22;5387;48.722;9.110;2023-02-11T04:21:33;-1.90;99.90
10678;DHT22;5387;48.722;9.110;2023-02-11T04:24:02;-1.80;99.90
10678;DHT22;5387;48.722;9.110;2023-02-11T04:26:28;-1.70;99.90
10678;DHT22;5387;48.722;9.110;2023-02-11T04:28:55;-1.90;99.90
10678;DHT22;5387;48.722;9.110;2023-02-11T04:31:22;-1.80;99.90
10678;DHT22;5387;48.722;9.110;2023-02-11T04:33:49;-1.60;99.90
10678;DHT22;5387;48.722;9.110;2023-02-11T04:36:15;-1.60;99.90
10678;DHT22;5387;48.722;9.110;2023-02-11T04:38:42;-1.50;99.90
10678;DHT22;5387;48.722;9.110;2023-02-11T04:41:10;-1.40;99.90
10678;DHT22;5387;48.722;9.110;2023-02-11T04:43:37;-1.40;99.90
10678;DHT22;5387;48.722;9.110;2023-02-11T04:46:04;-1.20;99.90
10678;DHT22;5387;48.722;9.110;2023-02-11T04:48:33;-1.10;99.90
10678;DHT22;5387;48.722;9.110;2023-02-11T04:51:00;-1.00;99.90
10678;DHT22;5387;48.722;9.110;2023-02-11T04:53:27;-0.90;99.90
10678;DHT22;5387;48.722;9.110;2023-02-11T04:55:54;-0.80;99.90
10678;DHT22;5387;48.722;9.110;2023-02-11T04:58:22;-0.70;99.90
10678;DHT22;5387;48.722;9.110;2023-02-11T05:00:49;-0.80;99.90
10678;DHT22;5387;48.722;9.110;2023-02-11T05:03:16;-0.70;99.90
10678;DHT22;5387;48.722;9.110;2023-02-11T05:05:43;-0.70;99.90
10678;DHT22;5387;48.722;9.110;2023-02-11T05:08:10;-0.70;99.90
10678;DHT22;5387;48.722;9.110;2023-02-11T05:10:37;-0.60;99.90
10678;DHT22;5387;48.722;9.110;2023-02-11T05:13:04;-0.70;99.90
10678;DHT22;5387;48.722;9.110;2023-02-11T05:15:32;-0.70;99.90
10678;DHT22;5387;48.722;9.110;2023-02-11T05:17:59;-0.70;99.90
10678;DHT22;5387;48.722;9.110;2023-02-11T05:20:26;-0.70;99.90
10678;DHT22;5387;48.722;9.110;2023-02-11T05:22:53;-0.80;99.90
10678;DHT22;5387;48.722;9.110;2023-02-11T05:25:19;-0.80;99.90
10678;DHT22;5387;48.722;9.110;2023-02-11T05:27:46;-0.70;99.90
10678;DHT22;5387;48.722;9.110;2023-02-11T05:30:13;-0.70;99.90
10678;DHT22;5387;48.722;9.110;2023-02-11T05:32:41;-0.60;99.90
10678;DHT22;5387;48.722;9.110;2023-02-11T05:35:08;-0.70;99.90
10678;DHT22;5387;48.722;9.110;2023-02-11T05:37:35;-0.70;99.90
10678;DHT22;5387;48.722;9.110;2023-02-11T05:40:02;-0.60;99.90
10678;DHT22;5387;48.722;9.110;2023-02-11T05:42:30;-0.50;99.90
10678;DHT22;5387;48.722;9.110;2023-02-11T05:44:57;-0.50;99.90
10678;DHT22;5387;48.722;9.110;2023-02-11T05:47:24;-0.60;99.90
10678;DHT22;5387;48.722;9.110;2023-02-11T05:49:52;-0.70;99.90
10678;DHT22;5387;48.722;9.110;2023-02-11T05:52:19;-0.60;99.90
10678;DHT22;5387;48.722;9.110;2023-02-11T05:54:46;-0.50;99.90
10678;DHT22;5387;48.722;9.110;2023-02-11T05:57:13;-0.40;99.90
10678;DHT22;5387;48.722;9.110;2023-02-11T05:59:40;-0.40;99.90
10678;DHT22;5387;48.722;9.110;2023-02-11T06:02:07;-0.30;99.90
10678;DHT22;5387;48.722;9.110;2023-02-11T06:04:35;-0.20;99.90
10678;DHT22;5387;48.722;9.110;2023-02-11T06:07:03;-0.10;99.90
10678;DHT22;5387;48.722;9.110;2023-02-11T06:09:30;0.00;99.90
10678;DHT22;5387;48.722;9.110;2023-02-11T06:11:57;0.00;99.90
10678;DHT22;5387;48.722;9.110;2023-02-11T06:14:24;0.10;99.90
10678;DHT22;5387;48.722;9.110;2023-02-11T06:16:50;0.20;99.90
10678;DHT22;5387;48.722;9.110;2023-02-11T06:19:17;0.20;99.90
10678;DHT22;5387;48.722;9.110;2023-02-11T06:21:44;0.20;99.90
10678;DHT22;5387;48.722;9.110;2023-02-11T06:24:12;0.30;99.90
10678;DHT22;5387;48.722;9.110;2023-02-11T06:26:39;0.40;99.90
10678;DHT22;5387;48.722;9.110;2023-02-11T06:29:06;0.40;99.90
10678;DHT22;5387;48.722;9.110;2023-02-11T06:31:33;0.50;99.90
10678;DHT22;5387;48.722;9.110;2023-02-11T06:33:59;0.40;99.90
10678;DHT22;5387;48.722;9.110;2023-02-11T06:36:26;0.30;99.90
10678;DHT22;5387;48.722;9.110;2023-02-11T06:38:54;0.30;99.90
10678;DHT22;5387;48.722;9.110;2023-02-11T06:41:22;0.20;99.90
10678;DHT22;5387;48.722;9.110;2023-02-11T06:43:49;0.30;99.90
10678;DHT22;5387;48.722;9.110;2023-02-11T06:46:16;0.40;99.90
10678;DHT22;5387;48.722;9.110;2023-02-11T06:48:43;0.40;99.90
10678;DHT22;5387;48.722;9.110;2023-02-11T06:51:11;0.40;99.90
10678;DHT22;5387;48.722;9.110;2023-02-11T06:53:39;0.50;99.90
10678;DHT22;5387;48.722;9.110;2023-02-11T06:56:08;0.60;99.90
10678;DHT22;5387;48.722;9.110;2023-02-11T06:58:37;0.60;99.90
10678;DHT22;5387;48.722;9.110;2023-02-11T07:01:05;0.70;99.90
10678;DHT22;5387;48.722;9.110;2023-02-11T07:03:33;0.70;99.90
10678;DHT22;5387;48.722;9.110;2023-02-11T07:06:00;0.80;99.90
10678;DHT22;5387;48.722;9.110;2023-02-11T07:08:27;0.90;99.90
10678;DHT22;5387;48.722;9.110;2023-02-11T07:10:54;1.00;99.90
10678;DHT22;5387;48.722;9.110;2023-02-11T07:13:21;1.20;99.90
10678;DHT22;5387;48.722;9.110;2023-02-11T07:15:49;1.00;99.90
10678;DHT22;5387;48.722;9.110;2023-02-11T07:18:16;0.80;99.90
10678;DHT22;5387;48.722;9.110;2023-02-11T07:20:43;0.80;99.90
10678;DHT22;5387;48.722;9.110;2023-02-11T07:23:09;0.80;99.90
10678;DHT22;5387;48.722;9.110;2023-02-11T07:25:36;0.90;99.90
10678;DHT22;5387;48.722;9.110;2023-02-11T07:28:03;0.90;99.90
10678;DHT22;5387;48.722;9.110;2023-02-11T07:30:30;0.90;99.90
10678;DHT22;5387;48.722;9.110;2023-02-11T07:32:58;1.10;99.90
10678;DHT22;5387;48.722;9.110;2023-02-11T07:35:25;1.20;99.90
10678;DHT22;5387;48.722;9.110;2023-02-11T07:37:52;1.20;99.90
10678;DHT22;5387;48.722;9.110;2023-02-11T07:40:19;1.20;99.90
10678;DHT22;5387;48.722;9.110;2023-02-11T07:42:45;1.30;99.90
10678;DHT22;5387;48.722;9.110;2023-02-11T07:45:12;1.40;99.90
10678;DHT22;5387;48.722;9.110;2023-02-11T07:47:39;1.60;99.90
10678;DHT22;5387;48.722;9.110;2023-02-11T07:50:08;1.70;99.90
10678;DHT22;5387;48.722;9.110;2023-02-11T07:52:35;1.90;99.90
10678;DHT22;5387;48.722;9.110;2023-02-11T07:55:02;2.10;99.90
10678;DHT22;5387;48.722;9.110;2023-02-11T07:57:29;2.30;99.90
10678;DHT22;5387;48.722;9.110;2023-02-11T07:59:56;2.30;99.90
10678;DHT22;5387;48.722;9.110;2023-02-11T08:02:23;2.40;99.90
10678;DHT22;5387;48.722;9.110;2023-02-11T08:04:49;2.50;99.90
10678;DHT22;5387;48.722;9.110;2023-02-11T08:07:18;2.50;99.90
10678;DHT22;5387;48.722;9.110;2023-02-11T08:09:45;2.40;99.90
10678;DHT22;5387;48.722;9.110;2023-02-11T08:12:12;2.40;99.90
10678;DHT22;5387;48.722;9.110;2023-02-11T08:14:38;2.50;99.90
10678;DHT22;5387;48.722;9.110;2023-02-11T08:17:05;2.50;99.90
10678;DHT22;5387;48.722;9.110;2023-02-11T08:19:32;2.40;99.90
10678;DHT22;5387;48.722;9.110;2023-02-11T08:21:59;2.50;99.90
10678;DHT22;5387;48.722;9.110;2023-02-11T08:24:27;2.50;99.90
10678;DHT22;5387;48.722;9.110;2023-02-11T08:26:54;2.60;99.90
10678;DHT22;5387;48.722;9.110;2023-02-11T08:29:21;2.80;99.90
10678;DHT22;5387;48.722;9.110;2023-02-11T08:31:48;2.80;99.90
10678;DHT22;5387;48.722;9.110;2023-02-11T08:34:15;3.00;99.90
10678;DHT22;5387;48.722;9.110;2023-02-11T08:36:44;3.20;99.90
10678;DHT22;5387;48.722;9.110;2023-02-11T08:39:14;3.50;99.90
10678;DHT22;5387;48.722;9.110;2023-02-11T08:41:42;3.60;99.90
10678;DHT22;5387;48.722;9.110;2023-02-11T08:44:10;3.90;99.90
10678;DHT22;5387;48.722;9.110;2023-02-11T08:46:37;4.20;99.90
10678;DHT22;5387;48.722;9.110;2023-02-11T08:49:03;4.10;99.90
10678;DHT22;5387;48.722;9.110;2023-02-11T08:51:30;4.10;99.90
10678;DHT22;5387;48.722;9.110;2023-02-11T08:53:58;4.00;99.90
10678;DHT22;5387;48.722;9.110;2023-02-11T08:56:25;4.00;99.90
10678;DHT22;5387;48.722;9.110;2023-02-11T08:58:53;4.00;99.90
10678;DHT22;5387;48.722;9.110;2023-02-11T09:01:22;3.90;99.90
10678;DHT22;5387;48.722;9.110;2023-02-11T09:03:49;3.90;99.90
10678;DHT22;5387;48.722;9.110;2023-02-11T09:06:16;3.90;99.90
10678;DHT22;5387;48.722;9.110;2023-02-11T09:08:47;4.30;99.90
10678;DHT22;5387;48.722;9.110;2023-02-11T09:11:15;4.40;99.90
10678;DHT22;5387;48.722;9.110;2023-02-11T09:13:42;4.70;99.90
10678;DHT22;5387;48.722;9.110;2023-02-11T09:16:16;4.60;99.90
10678;DHT22;5387;48.722;9.110;2023-02-11T09:18:43;4.90;99.90
10678;DHT22;5387;48.722;9.110;2023-02-11T09:21:11;4.80;99.90
10678;DHT22;5387;48.722;9.110;2023-02-11T09:23:38;4.90;99.90
10678;DHT22;5387;48.722;9.110;2023-02-11T09:26:11;4.70;99.90
10678;DHT22;5387;48.722;9.110;2023-02-11T09:28:39;4.90;99.90
10678;DHT22;5387;48.722;9.110;2023-02-11T09:31:06;4.80;99.90
10678;DHT22;5387;48.722;9.110;2023-02-11T09:33:35;4.80;99.90
10678;DHT22;5387;48.722;9.110;2023-02-11T09:36:03;4.90;99.90
10678;DHT22;5387;48.722;9.110;2023-02-11T09:38:31;5.30;99.90
10678;DHT22;5387;48.722;9.110;2023-02-11T09:40:58;5.60;99.90
10678;DHT22;5387;48.722;9.110;2023-02-11T09:43:32;5.70;99.90
10678;DHT22;5387;48.722;9.110;2023-02-11T09:46:00;6.10;99.90
10678;DHT22;5387;48.722;9.110;2023-02-11T09:48:29;6.10;99.90
10678;DHT22;5387;48.722;9.110;2023-02-11T09:51:03;6.10;99.90
10678;DHT22;5387;48.722;9.110;2023-02-11T09:53:34;5.90;99.90
10678;DHT22;5387;48.722;9.110;2023-02-11T09:56:10;5.80;99.90
10678;DHT22;5387;48.722;9.110;2023-02-11T09:58:39;5.90;99.90
10678;DHT22;5387;48.722;9.110;2023-02-11T10:01:14;6.00;99.90
10678;DHT22;5387;48.722;9.110;2023-02-11T10:04:04;6.20;99.90
10678;DHT22;5387;48.722;9.110;2023-02-11T10:06:39;6.20;99.90
10678;DHT22;5387;48.722;9.110;2023-02-11T10:09:18;6.10;99.90
10678;DHT22;5387;48.722;9.110;2023-02-11T10:11:52;6.20;99.90
10678;DHT22;5387;48.722;9.110;2023-02-11T10:14:36;6.20;99.90
10678;DHT22;5387;48.722;9.110;2023-02-11T10:17:16;5.90;99.90
10678;DHT22;5387;48.722;9.110;2023-02-11T10:20:00;5.70;99.90
10678;DHT22;5387;48.722;9.110;2023-02-11T10:22:33;5.80;99.90
10678;DHT22;5387;48.722;9.110;2023-02-11T10:25:14;6.20;99.90
10678;DHT22;5387;48.722;9.110;2023-02-11T10:27:43;6.50;99.90
10678;DHT22;5387;48.722;9.110;2023-02-11T10:30:18;6.70;99.90
10678;DHT22;5387;48.722;9.110;2023-02-11T10:32:48;6.80;99.90
10678;DHT22;5387;48.722;9.110;2023-02-11T10:35:20;6.90;99.90
10678;DHT22;5387;48.722;9.110;2023-02-11T10:37:48;7.00;99.90
10678;DHT22;5387;48.722;9.110;2023-02-11T10:40:17;6.90;99.90
10678;DHT22;5387;48.722;9.110;2023-02-11T10:42:49;6.90;99.90
10678;DHT22;5387;48.722;9.110;2023-02-11T10:45:21;6.80;99.90
10678;DHT22;5387;48.722;9.110;2023-02-11T10:47:49;7.00;99.90
10678;DHT22;5387;48.722;9.110;2023-02-11T10:50:26;7.10;99.90
10678;DHT22;5387;48.722;9.110;2023-02-11T10:53:11;7.10;99.90
10678;DHT22;5387;48.722;9.110;2023-02-11T10:55:38;6.90;99.90
10678;DHT22;5387;48.722;9.110;2023-02-11T10:58:22;6.90;99.90
10678;DHT22;5387;48.722;9.110;2023-02-11T11:00:52;6.80;99.90
10678;DHT22;5387;48.722;9.110;2023-02-11T11:03:22;6.60;99.90
10678;DHT22;5387;48.722;9.110;2023-02-11T11:05:50;6.50;99.90
10678;DHT22;5387;48.722;9.110;2023-02-11T11:08:19;6.60;99.90
10678;DHT22;5387;48.722;9.110;2023-02-11T11:10:48;6.60;99.90
10678;DHT22;5387;48.722;9.110;2023-02-11T11:13:25;6.40;99.90
10678;DHT22;5387;48.722;9.110;2023-02-11T11:16:18;6.60;99.90
10678;DHT22;5387;48.722;9.110;2023-02-11T11:18:46;6.70;99.90
10678;DHT22;5387;48.722;9.110;2023-02-11T11:21:15;6.60;99.90
10678;DHT22;5387;48.722;9.110;2023-02-11T11:23:50;6.70;99.90
10678;DHT22;5387;48.722;9.110;2023-02-11T11:26:18;6.90;99.90
10678;DHT22;5387;48.722;9.110;2023-02-11T11:28:57;6.80;99.90
10678;DHT22;5387;48.722;9.110;2023-02-11T11:31:27;6.80;99.90
10678;DHT22;5387;48.722;9.110;2023-02-11T11:33:57;7.30;99.90
10678;DHT22;5387;48.722;9.110;2023-02-11T11:36:32;7.60;99.90
10678;DHT22;5387;48.722;9.110;2023-02-11T11:39:13;7.50;99.90
10678;DHT22;5387;48.722;9.110;2023-02-11T11:41:49;7.60;99.90
10678;DHT22;5387;48.722;9.110;2023-02-11T11:44:23;7.90;99.90
10678;DHT22;5387;48.722;9.110;2023-02-11T11:49:49;7.60;99.90
10678;DHT22;5387;48.722;9.110;2023-02-11T11:52:25;7.40;99.90
10678;DHT22;5387;48.722;9.110;2023-02-11T11:55:04;7.60;99.90
10678;DHT22;5387;48.722;9.110;2023-02-11T11:57:36;7.70;99.90
10678;DHT22;5387;48.722;9.110;2023-02-11T12:00:05;7.80;99.90
10678;DHT22;5387;48.722;9.110;2023-02-11T12:03:05;8.30;99.90
10678;DHT22;5387;48.722;9.110;2023-02-11T12:05:43;8.20;99.90
10678;DHT22;5387;48.722;9.110;2023-02-11T12:08:20;8.20;99.90
10678;DHT22;5387;48.722;9.110;2023-02-11T12:11:03;8.30;99.90
10678;DHT22;5387;48.722;9.110;2023-02-11T12:13:39;8.20;99.90
10678;DHT22;5387;48.722;9.110;2023-02-11T12:16:18;8.30;99.90
10678;DHT22;5387;48.722;9.110;2023-02-11T12:21:54;8.20;99.90
10678;DHT22;5387;48.722;9.110;2023-02-11T12:24:35;8.20;99.90
10678;DHT22;5387;48.722;9.110;2023-02-11T12:27:10;8.20;99.90
10678;DHT22;5387;48.722;9.110;2023-02-11T12:29:52;8.10;99.90
10678;DHT22;5387;48.722;9.110;2023-02-11T12:32:26;8.10;99.90
10678;DHT22;5387;48.722;9.110;2023-02-11T12:38:15;8.30;99.90
10678;DHT22;5387;48.722;9.110;2023-02-11T12:40:45;8.70;99.90
10678;DHT22;5387;48.722;9.110;2023-02-11T12:43:21;8.90;99.90
10678;DHT22;5387;48.722;9.110;2023-02-11T12:46:13;9.20;99.90
10678;DHT22;5387;48.722;9.110;2023-02-11T12:48:54;9.00;99.90
10678;DHT22;5387;48.722;9.110;2023-02-11T12:51:34;8.70;99.90
10678;DHT22;5387;48.722;9.110;2023-02-11T12:54:14;8.80;99.90
10678;DHT22;5387;48.722;9.110;2023-02-11T12:56:46;8.80;99.90
10678;DHT22;5387;48.722;9.110;2023-02-11T12:59:20;8.60;99.90
10678;DHT22;5387;48.722;9.110;2023-02-11T13:01:48;8.80;99.90
10678;DHT22;5387;48.722;9.110;2023-02-11T13:04:22;8.90;99.90
10678;DHT22;5387;48.722;9.110;2023-02-11T13:06:54;8.60;99.90
10678;DHT22;5387;48.722;9.110;2023-02-11T13:09:23;8.60;99.90
10678;DHT22;5387;48.722;9.110;2023-02-11T13:11:54;8.40;99.90
10678;DHT22;5387;48.722;9.110;2023-02-11T13:14:27;8.00;99.90
10678;DHT22;5387;48.722;9.110;2023-02-11T13:16:55;7.90;99.90
10678;DHT22;5387;48.722;9.110;2023-02-11T13:19:28;8.10;99.90
10678;DHT22;5387;48.722;9.110;2023-02-11T13:22:11;8.30;99.90
10678;DHT22;5387;48.722;9.110;2023-02-11T13:24:42;8.10;99.90
10678;DHT22;5387;48.722;9.110;2023-02-11T13:27:18;8.40;99.90
10678;DHT22;5387;48.722;9.110;2023-02-11T13:30:08;8.40;99.90
10678;DHT22;5387;48.722;9.110;2023-02-11T13:33:05;8.40;99.90
10678;DHT22;5387;48.722;9.110;2023-02-11T13:35:44;8.60;99.90
10678;DHT22;5387;48.722;9.110;2023-02-11T13:38:18;8.70;99.90
10678;DHT22;5387;48.722;9.110;2023-02-11T13:40:58;9.00;99.90
10678;DHT22;5387;48.722;9.110;2023-02-11T13:43:27;9.10;99.90
10678;DHT22;5387;48.722;9.110;2023-02-11T13:45:59;9.40;99.90
10678;DHT22;5387;48.722;9.110;2023-02-11T13:48:28;9.00;99.90
10678;DHT22;5387;48.722;9.110;2023-02-11T13:50:57;8.70;99.90
10678;DHT22;5387;48.722;9.110;2023-02-11T13:53:26;8.40;99.90
10678;DHT22;5387;48.722;9.110;2023-02-11T13:56:05;8.20;99.90
10678;DHT22;5387;48.722;9.110;2023-02-11T13:58:35;7.90;99.90
10678;DHT22;5387;48.722;9.110;2023-02-11T14:01:05;7.80;99.90
10678;DHT22;5387;48.722;9.110;2023-02-11T14:03:37;7.70;99.90
10678;DHT22;5387;48.722;9.110;2023-02-11T14:06:24;7.60;99.90
10678;DHT22;5387;48.722;9.110;2023-02-11T14:09:34;7.70;99.90
10678;DHT22;5387;48.722;9.110;2023-02-11T14:12:29;7.80;99.90
10678;DHT22;5387;48.722;9.110;2023-02-11T14:17:41;7.80;99.90
10678;DHT22;5387;48.722;9.110;2023-02-11T14:20:36;7.70;99.90
10678;DHT22;5387;48.722;9.110;2023-02-11T14:23:05;7.60;99.90
10678;DHT22;5387;48.722;9.110;2023-02-11T14:25:32;7.60;99.90
10678;DHT22;5387;48.722;9.110;2023-02-11T14:28:04;7.70;99.90
10678;DHT22;5387;48.722;9.110;2023-02-11T14:30:45;7.60;99.90
10678;DHT22;5387;48.722;9.110;2023-02-11T14:33:36;7.60;99.90
10678;DHT22;5387;48.722;9.110;2023-02-11T14:36:12;7.60;99.90
10678;DHT22;5387;48.722;9.110;2023-02-11T14:38:56;7.50;99.90
10678;DHT22;5387;48.722;9.110;2023-02-11T14:41:26;7.50;99.90
10678;DHT22;5387;48.722;9.110;2023-02-11T14:43:57;7.60;99.90
10678;DHT22;5387;48.722;9.110;2023-02-11T14:46:26;7.60;99.90
10678;DHT22;5387;48.722;9.110;2023-02-11T14:48:58;7.60;99.90
10678;DHT22;5387;48.722;9.110;2023-02-11T14:51:27;7.50;99.90
10678;DHT22;5387;48.722;9.110;2023-02-11T14:53:58;7.40;99.90
10678;DHT22;5387;48.722;9.110;2023-02-11T14:56:28;7.40;99.90
10678;DHT22;5387;48.722;9.110;2023-02-11T14:58:57;7.40;99.90
10678;DHT22;5387;48.722;9.110;2023-02-11T15:01:27;7.40;99.90
10678;DHT22;5387;48.722;9.110;2023-02-11T15:03:56;7.40;99.90
10678;DHT22;5387;48.722;9.110;2023-02-11T15:06:27;7.30;99.90
10678;DHT22;5387;48.722;9.110;2023-02-11T15:08:57;7.40;99.90
10678;DHT22;5387;48.722;9.110;2023-02-11T15:11:27;7.40;99.90
10678;DHT22;5387;48.722;9.110;2023-02-11T15:13:55;7.30;99.90
10678;DHT22;5387;48.722;9.110;2023-02-11T15:16:26;7.30;99.90
10678;DHT22;5387;48.722;9.110;2023-02-11T15:18:57;7.40;99.90
10678;DHT22;5387;48.722;9.110;2023-02-11T15:21:27;7.40;99.90
10678;DHT22;5387;48.722;9.110;2023-02-11T15:23:57;7.30;99.90
10678;DHT22;5387;48.722;9.110;2023-02-11T15:26:24;7.50;99.90
10678;DHT22;5387;48.722;9.110;2023-02-11T15:28:51;7.60;99.90
10678;DHT22;5387;48.722;9.110;2023-02-11T15:31:20;7.40;99.90
10678;DHT22;5387;48.722;9.110;2023-02-11T15:33:47;7.50;99.90
10678;DHT22;5387;48.722;9.110;2023-02-11T15:36:17;7.40;99.90
10678;DHT22;5387;48.722;9.110;2023-02-11T15:38:45;7.50;99.90
10678;DHT22;5387;48.722;9.110;2023-02-11T15:41:34;7.30;99.90
10678;DHT22;5387;48.722;9.110;2023-02-11T15:44:01;7.20;99.90
10678;DHT22;5387;48.722;9.110;2023-02-11T15:46:35;6.90;99.90
10678;DHT22;5387;48.722;9.110;2023-02-11T15:49:03;7.00;99.90
10678;DHT22;5387;48.722;9.110;2023-02-11T15:51:34;6.90;99.90
10678;DHT22;5387;48.722;9.110;2023-02-11T15:54:03;6.80;99.90
10678;DHT22;5387;48.722;9.110;2023-02-11T15:56:35;6.70;99.90
10678;DHT22;5387;48.722;9.110;2023-02-11T15:59:10;6.60;99.90
10678;DHT22;5387;48.722;9.110;2023-02-11T16:01:40;6.60;99.90
10678;DHT22;5387;48.722;9.110;2023-02-11T16:04:15;6.50;99.90
10678;DHT22;5387;48.722;9.110;2023-02-11T16:06:43;6.50;99.90
10678;DHT22;5387;48.722;9.110;2023-02-11T16:09:24;6.40;99.90
10678;DHT22;5387;48.722;9.110;2023-02-11T16:11:56;6.40;99.90
10678;DHT22;5387;48.722;9.110;2023-02-11T16:14:28;6.20;99.90
10678;DHT22;5387;48.722;9.110;2023-02-11T16:16:56;5.90;99.90
10678;DHT22;5387;48.722;9.110;2023-02-11T16:19:25;5.90;99.90
10678;DHT22;5387;48.722;9.110;2023-02-11T16:21:55;5.80;99.90
10678;DHT22;5387;48.722;9.110;2023-02-11T16:24:24;5.80;99.90
10678;DHT22;5387;48.722;9.110;2023-02-11T16:26:53;5.80;99.90
10678;DHT22;5387;48.722;9.110;2023-02-11T16:29:24;5.70;99.90